createdAt,value
2022-11-12T00:00:45.830Z,7.89
2022-11-12T00:01:45.851Z,7.85
2022-11-12T00:02:45.804Z,7.84
2022-11-12T00:03:45.808Z,7.84
2022-11-12T00:04:45.782Z,7.84
2022-11-12T00:05:45.769Z,7.82
2022-11-12T00:06:45.781Z,7.82
2022-11-12T00:07:45.750Z,7.81
2022-11-12T00:08:45.757Z,7.81
2022-11-12T00:09:45.733Z,7.82
2022-11-12T00:10:45.723Z,7.79
2022-11-12T00:11:45.702Z,7.81
2022-11-12T00:12:45.702Z,7.81
2022-11-12T00:13:45.691Z,7.81
2022-11-12T00:14:45.670Z,7.81
2022-11-12T00:15:45.656Z,7.79
2022-11-12T00:16:45.655Z,7.81
2022-11-12T00:17:45.632Z,7.79
2022-11-12T00:18:45.640Z,7.78
2022-11-12T00:19:45.618Z,7.77
2022-11-12T00:20:45.605Z,7.77
2022-11-12T00:21:45.584Z,7.77
2022-11-12T00:22:45.586Z,7.74
2022-11-12T00:23:45.588Z,7.74
2022-11-12T00:24:45.573Z,7.74
2022-11-12T00:25:45.544Z,7.72
2022-11-12T00:26:45.534Z,7.71
2022-11-12T00:27:45.520Z,7.69
2022-11-12T00:28:45.528Z,7.67
2022-11-12T00:29:45.507Z,7.67
2022-11-12T00:30:45.492Z,7.66
2022-11-12T00:31:45.483Z,7.66
2022-11-12T00:32:45.471Z,7.63
2022-11-12T00:33:45.479Z,7.66
2022-11-12T00:34:45.453Z,7.63
2022-11-12T00:35:45.439Z,7.62
2022-11-12T00:36:45.431Z,7.62
2022-11-12T00:37:45.410Z,7.60
2022-11-12T00:38:45.420Z,7.59
2022-11-12T00:39:45.388Z,7.59
2022-11-12T00:40:45.384Z,7.58
2022-11-12T00:41:45.366Z,7.58
2022-11-12T00:42:45.358Z,7.60
2022-11-12T00:43:45.361Z,7.63
2022-11-12T00:44:45.361Z,7.66
2022-11-12T00:45:45.322Z,7.69
2022-11-12T00:46:45.317Z,7.71
2022-11-12T00:47:45.301Z,7.74
2022-11-12T00:48:45.309Z,7.75
2022-11-12T00:49:45.278Z,7.77
2022-11-12T00:50:45.273Z,7.79
2022-11-12T00:51:45.255Z,7.82
2022-11-12T00:52:45.247Z,7.84
2022-11-12T00:53:45.252Z,7.84
2022-11-12T00:54:45.230Z,7.87
2022-11-12T00:55:45.214Z,7.87
2022-11-12T00:56:45.200Z,7.87
2022-11-12T00:57:45.184Z,7.89
2022-11-12T00:58:45.197Z,7.89
2022-11-12T00:59:45.166Z,7.89
2022-11-12T01:00:45.211Z,7.89
2022-11-12T01:01:45.154Z,7.89
2022-11-12T01:02:50.421Z,7.90
2022-11-12T01:03:45.218Z,7.92
2022-11-12T01:04:45.116Z,7.93
2022-11-12T01:05:45.098Z,7.94
2022-11-12T01:06:45.129Z,7.97
2022-11-12T01:07:45.080Z,7.99
2022-11-12T01:08:45.088Z,8.00
2022-11-12T01:09:45.053Z,8.03
2022-11-12T01:10:45.053Z,8.04
2022-11-12T01:11:45.035Z,8.08
2022-11-12T01:12:45.027Z,8.11
2022-11-12T01:13:45.029Z,8.11
2022-11-12T01:14:45.004Z,8.15
2022-11-12T01:15:45.018Z,8.15
2022-11-12T01:16:44.981Z,8.18
2022-11-12T01:17:44.969Z,8.21
2022-11-12T01:18:44.975Z,8.22
2022-11-12T01:19:44.943Z,8.25
2022-11-12T01:20:44.927Z,8.26
2022-11-12T01:21:44.932Z,8.28
2022-11-12T01:22:44.911Z,8.30
2022-11-12T01:23:44.909Z,8.30
2022-11-12T01:24:44.892Z,8.32
2022-11-12T01:25:44.881Z,8.33
2022-11-12T01:26:44.860Z,8.36
2022-11-12T01:27:44.850Z,8.37
2022-11-12T01:28:44.860Z,8.39
2022-11-12T01:29:44.831Z,8.40
2022-11-12T01:30:44.826Z,8.42
2022-11-12T01:31:44.813Z,8.47
2022-11-12T01:32:44.801Z,8.47
2022-11-12T01:33:44.801Z,8.50
2022-11-12T01:34:44.779Z,8.51
2022-11-12T01:35:44.775Z,8.54
2022-11-12T01:36:44.759Z,8.54
2022-11-12T01:37:44.751Z,8.57
2022-11-12T01:38:44.755Z,8.57
2022-11-12T01:39:44.719Z,8.60
2022-11-12T01:40:44.717Z,8.60
2022-11-12T01:41:44.698Z,8.62
2022-11-12T01:42:44.692Z,8.63
2022-11-12T01:43:44.695Z,8.65
2022-11-12T01:44:44.674Z,8.65
2022-11-12T01:45:44.658Z,8.66
2022-11-12T01:46:44.644Z,8.68
2022-11-12T01:47:44.632Z,8.69
2022-11-12T01:48:44.643Z,8.72
2022-11-12T01:49:50.298Z,8.71
2022-11-12T01:50:44.603Z,8.71
2022-11-12T01:51:44.591Z,8.72
2022-11-12T01:52:44.587Z,8.73
2022-11-12T01:53:44.587Z,8.73
2022-11-12T01:54:44.563Z,8.73
2022-11-12T01:55:44.555Z,8.73
2022-11-12T01:56:44.547Z,8.75
2022-11-12T01:57:44.528Z,8.76
2022-11-12T01:58:44.535Z,8.75
2022-11-12T01:59:44.510Z,8.76
2022-11-12T02:00:44.532Z,8.76
2022-11-12T02:01:44.484Z,8.76
2022-11-12T02:02:44.477Z,8.76
2022-11-12T02:03:44.480Z,8.75
2022-11-12T02:04:44.452Z,8.76
2022-11-12T02:05:44.432Z,8.75
2022-11-12T02:06:44.459Z,8.76
2022-11-12T02:07:44.413Z,8.78
2022-11-12T02:08:44.423Z,8.76
2022-11-12T02:09:44.396Z,8.78
2022-11-12T02:10:44.392Z,8.78
2022-11-12T02:11:44.368Z,8.78
2022-11-12T02:12:44.364Z,8.79
2022-11-12T02:13:44.342Z,8.78
2022-11-12T02:14:44.354Z,8.75
2022-11-12T02:15:44.334Z,8.76
2022-11-12T02:16:44.314Z,8.75
2022-11-12T02:17:44.302Z,8.72
2022-11-12T02:18:44.313Z,8.71
2022-11-12T02:19:44.298Z,8.71
2022-11-12T02:20:44.269Z,8.71
2022-11-12T02:21:44.261Z,8.72
2022-11-12T02:22:44.285Z,8.71
2022-11-12T02:23:44.237Z,8.71
2022-11-12T02:24:44.253Z,8.71
2022-11-12T02:25:44.216Z,8.69
2022-11-12T02:26:44.203Z,8.71
2022-11-12T02:27:44.198Z,8.71
2022-11-12T02:28:44.193Z,8.71
2022-11-12T02:29:44.198Z,8.69
2022-11-12T02:30:44.175Z,8.68
2022-11-12T02:31:44.147Z,8.66
2022-11-12T02:32:44.144Z,8.65
2022-11-12T02:33:44.127Z,8.63
2022-11-12T02:34:44.141Z,8.60
2022-11-12T02:35:44.111Z,8.57
2022-11-12T02:36:44.101Z,8.55
2022-11-12T02:37:44.086Z,8.51
2022-11-12T02:38:44.076Z,8.47
2022-11-12T02:39:44.076Z,8.42
2022-11-12T02:40:44.057Z,8.39
2022-11-12T02:41:44.042Z,8.35
2022-11-12T02:42:44.027Z,8.32
2022-11-12T02:43:44.022Z,8.28
2022-11-12T02:44:44.025Z,8.21
2022-11-12T02:45:44.001Z,8.15
2022-11-12T02:46:44.018Z,8.11
2022-11-12T02:47:43.973Z,8.07
2022-11-12T02:48:44.041Z,8.04
2022-11-12T02:49:43.972Z,8.02
2022-11-12T02:50:43.939Z,8.00
2022-11-12T02:51:43.943Z,7.97
2022-11-12T02:52:43.915Z,7.96
2022-11-12T02:53:43.906Z,7.93
2022-11-12T02:54:43.918Z,7.90
2022-11-12T02:55:43.883Z,7.89
2022-11-12T02:56:43.877Z,7.89
2022-11-12T02:57:43.867Z,7.84
2022-11-12T02:58:43.855Z,7.82
2022-11-12T02:59:43.865Z,7.82
2022-11-12T03:00:43.845Z,7.79
2022-11-12T03:01:43.821Z,7.77
2022-11-12T03:02:43.816Z,7.75
2022-11-12T03:03:43.802Z,7.74
2022-11-12T03:04:49.116Z,7.71
2022-11-12T03:05:43.788Z,7.71
2022-11-12T03:06:43.856Z,7.69
2022-11-12T03:07:43.791Z,7.67
2022-11-12T03:08:43.749Z,7.66
2022-11-12T03:09:51.454Z,7.62
2022-11-12T03:10:43.723Z,7.63
2022-11-12T03:11:43.710Z,7.63
2022-11-12T03:12:43.695Z,7.62
2022-11-12T03:13:43.689Z,7.62
2022-11-12T03:14:43.707Z,7.62
2022-11-12T03:15:43.671Z,7.59
2022-11-12T03:16:43.661Z,7.59
2022-11-12T03:17:43.682Z,7.58
2022-11-12T03:18:43.649Z,7.58
2022-11-12T03:19:43.649Z,7.56
2022-11-12T03:20:43.620Z,7.56
2022-11-12T03:21:43.603Z,7.53
2022-11-12T03:22:43.596Z,7.52
2022-11-12T03:23:43.592Z,7.50
2022-11-12T03:24:43.594Z,7.53
2022-11-12T03:25:43.553Z,7.50
2022-11-12T03:26:43.553Z,7.49
2022-11-12T03:27:43.565Z,7.49
2022-11-12T03:28:43.528Z,7.47
2022-11-12T03:29:43.533Z,7.45
2022-11-12T03:30:43.523Z,7.45
2022-11-12T03:31:43.491Z,7.45
2022-11-12T03:32:43.483Z,7.44
2022-11-12T03:33:43.480Z,7.44
2022-11-12T03:34:43.473Z,7.44
2022-11-12T03:35:43.443Z,7.42
2022-11-12T03:36:43.440Z,7.44
2022-11-12T03:37:43.427Z,7.42
2022-11-12T03:38:43.416Z,7.41
2022-11-12T03:39:43.436Z,7.38
2022-11-12T03:40:43.393Z,7.41
2022-11-12T03:41:43.374Z,7.40
2022-11-12T03:42:43.371Z,7.40
2022-11-12T03:43:43.372Z,7.38
2022-11-12T03:44:43.369Z,7.38
2022-11-12T03:45:43.334Z,7.38
2022-11-12T03:46:44.516Z,7.38
2022-11-12T03:47:43.337Z,7.37
2022-11-12T03:48:43.305Z,7.35
2022-11-12T03:49:43.340Z,7.37
2022-11-12T03:50:43.290Z,7.37
2022-11-12T03:51:43.280Z,7.37
2022-11-12T03:52:43.254Z,7.35
2022-11-12T03:53:43.247Z,7.37
2022-11-12T03:54:43.245Z,7.34
2022-11-12T03:55:43.239Z,7.34
2022-11-12T03:56:43.214Z,7.34
2022-11-12T03:57:43.200Z,7.32
2022-11-12T03:58:43.220Z,7.32
2022-11-12T03:59:43.187Z,7.29
2022-11-12T04:00:43.187Z,7.29
2022-11-12T04:01:43.172Z,7.29
2022-11-12T04:02:43.171Z,7.27
2022-11-12T04:03:43.124Z,7.29
2022-11-12T04:04:43.144Z,7.26
2022-11-12T04:05:43.112Z,7.27
2022-11-12T04:06:43.133Z,7.26
2022-11-12T04:07:43.092Z,7.24
2022-11-12T04:08:43.084Z,7.24
2022-11-12T04:09:43.104Z,7.24
2022-11-12T04:10:43.060Z,7.24
2022-11-12T04:11:43.065Z,7.22
2022-11-12T04:12:43.039Z,7.22
2022-11-12T04:13:43.024Z,7.22
2022-11-12T04:14:43.049Z,7.20
2022-11-12T04:15:43.005Z,7.19
2022-11-12T04:16:42.994Z,7.20
2022-11-12T04:17:42.967Z,7.20
2022-11-12T04:18:42.970Z,7.22
2022-11-12T04:19:42.977Z,7.19
2022-11-12T04:20:42.959Z,7.19
2022-11-12T04:21:42.934Z,7.19
2022-11-12T04:22:42.945Z,7.17
2022-11-12T04:23:42.911Z,7.16
2022-11-12T04:24:42.928Z,7.17
2022-11-12T04:25:42.888Z,7.15
2022-11-12T04:26:42.882Z,7.13
2022-11-12T04:27:42.863Z,7.13
2022-11-12T04:28:42.858Z,7.13
2022-11-12T04:29:42.879Z,7.12
2022-11-12T04:30:42.826Z,7.13
2022-11-12T04:31:42.833Z,7.12
2022-11-12T04:32:42.840Z,7.12
2022-11-12T04:33:42.803Z,7.08
2022-11-12T04:34:42.857Z,7.08
2022-11-12T04:35:42.802Z,7.07
2022-11-12T04:36:42.764Z,7.07
2022-11-12T04:37:42.753Z,7.08
2022-11-12T04:38:42.764Z,7.05
2022-11-12T04:39:42.744Z,7.07
2022-11-12T04:40:42.741Z,7.05
2022-11-12T04:41:42.705Z,7.05
2022-11-12T04:42:42.710Z,7.04
2022-11-12T04:43:42.693Z,7.01
2022-11-12T04:44:42.709Z,6.98
2022-11-12T04:45:42.665Z,6.95
2022-11-12T04:46:42.660Z,6.97
2022-11-12T04:47:42.639Z,6.97
2022-11-12T04:48:42.629Z,6.97
2022-11-12T04:49:42.654Z,6.95
2022-11-12T04:50:42.614Z,6.97
2022-11-12T04:51:42.617Z,6.97
2022-11-12T04:52:42.589Z,6.95
2022-11-12T04:53:42.575Z,6.95
2022-11-12T04:54:42.592Z,6.94
2022-11-12T04:55:42.555Z,6.94
2022-11-12T04:56:42.539Z,6.94
2022-11-12T04:57:42.523Z,6.94
2022-11-12T04:58:42.544Z,6.95
2022-11-12T04:59:42.508Z,6.95
2022-11-12T05:00:42.517Z,6.94
2022-11-12T05:01:42.507Z,6.95
2022-11-12T05:02:42.495Z,6.95
2022-11-12T05:03:42.459Z,6.95
2022-11-12T05:04:42.448Z,6.94
2022-11-12T05:05:42.465Z,6.95
2022-11-12T05:06:42.523Z,6.94
2022-11-12T05:07:42.419Z,6.94
2022-11-12T05:08:42.433Z,6.94
2022-11-12T05:09:42.405Z,6.94
2022-11-12T05:10:42.421Z,6.90
2022-11-12T05:11:42.373Z,6.90
2022-11-12T05:12:42.353Z,6.87
2022-11-12T05:13:42.350Z,6.89
2022-11-12T05:14:42.361Z,6.84
2022-11-12T05:15:42.346Z,6.81
2022-11-12T05:16:42.340Z,6.81
2022-11-12T05:17:42.310Z,6.80
2022-11-12T05:18:42.297Z,6.79
2022-11-12T05:19:42.297Z,6.77
2022-11-12T05:20:42.294Z,6.77
2022-11-12T05:21:43.590Z,6.76
2022-11-12T05:22:47.820Z,6.76
2022-11-12T05:23:42.272Z,6.76
2022-11-12T05:24:42.875Z,6.68
2022-11-12T05:25:42.233Z,6.66
2022-11-12T05:26:42.239Z,6.65
2022-11-12T05:27:42.193Z,6.62
2022-11-12T05:28:42.203Z,6.62
2022-11-12T05:29:42.179Z,6.61
2022-11-12T05:30:42.183Z,6.61
2022-11-12T05:31:42.155Z,6.62
2022-11-12T05:32:42.166Z,6.63
2022-11-12T05:33:42.131Z,6.63
2022-11-12T05:34:42.155Z,6.61
2022-11-12T05:35:42.119Z,6.61
2022-11-12T05:36:42.108Z,6.61
2022-11-12T05:37:42.090Z,6.61
2022-11-12T05:38:42.073Z,6.61
2022-11-12T05:39:42.073Z,6.58
2022-11-12T05:40:42.066Z,6.59
2022-11-12T05:42:10.881Z,6.58
2022-11-12T05:42:42.036Z,6.58
2022-11-12T05:43:42.026Z,6.58
2022-11-12T05:44:42.020Z,6.56
2022-11-12T05:45:42.080Z,6.54
2022-11-12T05:46:41.998Z,6.53
2022-11-12T05:47:41.978Z,6.51
2022-11-12T05:48:41.974Z,6.50
2022-11-12T05:49:41.952Z,6.51
2022-11-12T05:51:06.051Z,6.51
2022-11-12T05:51:41.932Z,6.50
2022-11-12T05:52:41.921Z,6.47
2022-11-12T05:53:41.937Z,6.46
2022-11-12T05:54:41.902Z,6.46
2022-11-12T05:55:41.915Z,6.43
2022-11-12T05:56:41.892Z,6.41
2022-11-12T05:57:41.867Z,6.40
2022-11-12T05:58:41.852Z,6.36
2022-11-12T05:59:41.865Z,6.38
2022-11-12T06:00:41.846Z,6.35
2022-11-12T06:01:41.815Z,6.35
2022-11-12T06:02:43.029Z,6.35
2022-11-12T06:03:41.789Z,6.33
2022-11-12T06:04:41.796Z,6.33
2022-11-12T06:05:41.801Z,6.33
2022-11-12T06:06:41.822Z,6.32
2022-11-12T06:07:41.800Z,6.33
2022-11-12T06:08:41.784Z,6.30
2022-11-12T06:09:41.763Z,6.32
2022-11-12T06:10:41.756Z,6.32
2022-11-12T06:11:41.729Z,6.30
2022-11-12T06:12:41.697Z,6.29
2022-11-12T06:13:41.691Z,6.30
2022-11-12T06:14:41.692Z,6.29
2022-11-12T06:15:41.687Z,6.28
2022-11-12T06:16:41.686Z,6.28
2022-11-12T06:17:41.677Z,6.25
2022-11-12T06:18:41.633Z,6.22
2022-11-12T06:19:41.660Z,6.22
2022-11-12T06:20:41.671Z,6.21
2022-11-12T06:21:41.604Z,6.22
2022-11-12T06:22:41.627Z,6.21
2022-11-12T06:23:41.585Z,6.21
2022-11-12T06:24:41.569Z,6.19
2022-11-12T06:25:41.576Z,6.18
2022-11-12T06:26:41.588Z,6.19
2022-11-12T06:27:41.536Z,6.21
2022-11-12T06:28:41.595Z,6.19
2022-11-12T06:29:41.525Z,6.19
2022-11-12T06:30:41.539Z,6.25
2022-11-12T06:31:41.530Z,6.22
2022-11-12T06:32:41.531Z,6.22
2022-11-12T06:33:41.516Z,6.21
2022-11-12T06:34:41.483Z,6.22
2022-11-12T06:35:43.130Z,6.21
2022-11-12T06:36:41.487Z,6.21
2022-11-12T06:37:41.432Z,6.19
2022-11-12T06:38:41.411Z,6.21
2022-11-12T06:39:41.413Z,6.21
2022-11-12T06:40:41.425Z,6.19
2022-11-12T06:41:41.376Z,6.21
2022-11-12T06:42:41.398Z,6.19
2022-11-12T06:43:41.358Z,6.19
2022-11-12T06:44:41.360Z,6.19
2022-11-12T06:45:41.356Z,6.18
2022-11-12T06:46:41.327Z,6.19
2022-11-12T06:47:41.307Z,6.18
2022-11-12T06:48:41.310Z,6.16
2022-11-12T06:49:41.307Z,6.18
2022-11-12T06:50:41.300Z,6.18
2022-11-12T06:51:41.267Z,6.19
2022-11-12T06:52:41.273Z,6.18
2022-11-12T06:53:41.244Z,6.18
2022-11-12T06:54:41.236Z,6.19
2022-11-12T06:55:41.242Z,6.21
2022-11-12T06:56:41.212Z,6.21
2022-11-12T06:57:41.196Z,6.25
2022-11-12T06:58:41.192Z,6.25
2022-11-12T06:59:41.203Z,6.26
2022-11-12T07:00:41.185Z,6.26
2022-11-12T07:01:41.184Z,6.28
2022-11-12T07:02:41.179Z,6.28
2022-11-12T07:03:41.136Z,6.28
2022-11-12T07:04:41.129Z,6.28
2022-11-12T07:05:41.147Z,6.29
2022-11-12T07:06:41.130Z,6.28
2022-11-12T07:07:41.085Z,6.28
2022-11-12T07:08:41.108Z,6.26
2022-11-12T07:09:41.061Z,6.25
2022-11-12T07:10:41.072Z,6.25
2022-11-12T07:11:41.049Z,6.22
2022-11-12T07:12:41.037Z,6.22
2022-11-12T07:13:41.023Z,6.25
2022-11-12T07:14:41.052Z,6.22
2022-11-12T07:15:41.032Z,6.25
2022-11-12T07:16:40.996Z,6.26
2022-11-12T07:17:40.982Z,6.25
2022-11-12T07:18:40.974Z,6.26
2022-11-12T07:19:40.965Z,6.28
2022-11-12T07:20:40.968Z,6.26
2022-11-12T07:21:40.954Z,6.25
2022-11-12T07:22:40.931Z,6.26
2022-11-12T07:23:40.904Z,6.26
2022-11-12T07:24:40.900Z,6.26
2022-11-12T07:25:40.912Z,6.26
2022-11-12T07:26:46.179Z,6.28
2022-11-12T07:27:40.884Z,6.26
2022-11-12T07:28:40.871Z,6.28
2022-11-12T07:29:48.955Z,6.29
2022-11-12T07:30:40.907Z,6.29
2022-11-12T07:31:40.844Z,6.32
2022-11-12T07:32:45.872Z,6.30
2022-11-12T07:33:40.827Z,6.32
2022-11-12T07:34:40.795Z,6.32
2022-11-12T07:35:40.805Z,6.32
2022-11-12T07:36:40.767Z,6.32
2022-11-12T07:37:40.766Z,6.30
2022-11-12T07:38:40.751Z,6.32
2022-11-12T07:39:40.740Z,6.33
2022-11-12T07:40:40.756Z,6.32
2022-11-12T07:41:40.707Z,6.32
2022-11-12T07:42:40.702Z,6.32
2022-11-12T07:43:40.689Z,6.33
2022-11-12T07:44:40.690Z,6.33
2022-11-12T07:45:40.687Z,6.33
2022-11-12T07:46:40.655Z,6.33
2022-11-12T07:47:40.653Z,6.33
2022-11-12T07:48:40.644Z,6.32
2022-11-12T07:49:40.635Z,6.30
2022-11-12T07:50:40.637Z,6.30
2022-11-12T07:51:40.603Z,6.32
2022-11-12T07:52:40.591Z,6.32
2022-11-12T07:53:40.588Z,6.30
2022-11-12T07:54:40.571Z,6.30
2022-11-12T07:55:40.576Z,6.30
2022-11-12T07:56:40.542Z,6.29
2022-11-12T07:57:40.535Z,6.29
2022-11-12T07:58:40.539Z,6.30
2022-11-12T07:59:45.725Z,6.30
2022-11-12T08:00:40.553Z,6.32
2022-11-12T08:01:40.577Z,6.30
2022-11-12T08:02:40.483Z,6.30
2022-11-12T08:03:40.489Z,6.29
2022-11-12T08:04:40.458Z,6.30
2022-11-12T08:05:40.472Z,6.30
2022-11-12T08:06:40.554Z,6.30
2022-11-12T08:07:40.583Z,6.32
2022-11-12T08:08:40.420Z,6.32
2022-11-12T08:09:40.407Z,6.35
2022-11-12T08:10:40.410Z,6.32
2022-11-12T08:11:40.370Z,6.33
2022-11-12T08:12:40.369Z,6.33
2022-11-12T08:13:40.353Z,6.33
2022-11-12T08:14:40.356Z,6.32
2022-11-12T08:15:40.383Z,6.33
2022-11-12T08:16:40.333Z,6.33
2022-11-12T08:17:40.330Z,6.33
2022-11-12T08:18:40.308Z,6.35
2022-11-12T08:19:40.293Z,6.33
2022-11-12T08:20:40.305Z,6.33
2022-11-12T08:21:40.274Z,6.33
2022-11-12T08:22:42.793Z,6.33
2022-11-12T08:23:40.263Z,6.32
2022-11-12T08:24:40.239Z,6.33
2022-11-12T08:25:40.240Z,6.32
2022-11-12T08:26:40.239Z,6.32
2022-11-12T08:27:40.199Z,6.32
2022-11-12T08:28:40.197Z,6.33
2022-11-12T08:29:40.184Z,6.33
2022-11-12T08:30:40.188Z,6.35
2022-11-12T08:31:40.170Z,6.36
2022-11-12T08:32:40.150Z,6.38
2022-11-12T08:33:40.150Z,6.38
2022-11-12T08:34:40.125Z,6.41
2022-11-12T08:35:40.133Z,6.41
2022-11-12T08:36:40.112Z,6.43
2022-11-12T08:37:40.089Z,6.43
2022-11-12T08:38:40.097Z,6.43
2022-11-12T08:39:40.070Z,6.44
2022-11-12T08:40:40.065Z,6.44
2022-11-12T08:41:40.075Z,6.47
2022-11-12T08:42:40.055Z,6.47
2022-11-12T08:43:40.056Z,6.48
2022-11-12T08:44:40.009Z,6.48
2022-11-12T08:45:40.014Z,6.51
2022-11-12T08:46:40.036Z,6.51
2022-11-12T08:47:40.027Z,6.53
2022-11-12T08:48:40.029Z,6.54
2022-11-12T08:49:43.740Z,6.56
2022-11-12T08:50:39.975Z,6.56
2022-11-12T08:51:39.961Z,6.59
2022-11-12T08:52:39.935Z,6.61
2022-11-12T08:53:39.916Z,6.61
2022-11-12T08:54:39.941Z,6.62
2022-11-12T08:55:39.888Z,6.63
2022-11-12T08:56:39.927Z,6.65
2022-11-12T08:57:39.869Z,6.68
2022-11-12T08:58:39.862Z,6.69
2022-11-12T08:59:39.848Z,6.72
2022-11-12T09:00:39.863Z,6.73
2022-11-12T09:01:39.892Z,6.77
2022-11-12T09:02:39.821Z,6.77
2022-11-12T09:03:39.814Z,6.80
2022-11-12T09:04:39.792Z,6.83
2022-11-12T09:05:39.794Z,6.84
2022-11-12T09:06:39.829Z,6.87
2022-11-12T09:07:55.100Z,6.87
2022-11-12T09:08:39.785Z,6.90
2022-11-12T09:09:46.293Z,6.90
2022-11-12T09:10:39.758Z,6.94
2022-11-12T09:11:39.732Z,6.95
2022-11-12T09:12:39.710Z,6.97
2022-11-12T09:13:39.725Z,6.95
2022-11-12T09:14:39.705Z,6.98
2022-11-12T09:15:39.690Z,7.02
2022-11-12T09:16:39.697Z,7.05
2022-11-12T09:17:39.671Z,7.07
2022-11-12T09:18:39.639Z,7.12
2022-11-12T09:19:42.911Z,7.15
2022-11-12T09:20:39.626Z,7.17
2022-11-12T09:21:39.619Z,7.20
2022-11-12T09:22:39.606Z,7.19
2022-11-12T09:23:39.576Z,7.19
2022-11-12T09:24:39.582Z,7.19
2022-11-12T09:25:39.563Z,7.19
2022-11-12T09:26:39.612Z,7.20
2022-11-12T09:27:43.128Z,7.22
2022-11-12T09:28:39.545Z,7.22
2022-11-12T09:29:39.518Z,7.26
2022-11-12T09:30:39.757Z,7.29
2022-11-12T09:31:39.598Z,7.29
2022-11-12T09:32:39.480Z,7.31
2022-11-12T09:33:39.476Z,7.32
2022-11-12T09:34:39.460Z,7.34
2022-11-12T09:35:39.449Z,7.35
2022-11-12T09:36:40.044Z,7.35
2022-11-12T09:37:39.470Z,7.35
2022-11-12T09:38:39.418Z,7.35
2022-11-12T09:39:39.406Z,7.35
2022-11-12T09:40:39.404Z,7.40
2022-11-12T09:41:39.403Z,7.42
2022-11-12T09:42:39.378Z,7.45
2022-11-12T09:43:39.415Z,7.53
2022-11-12T09:44:39.349Z,7.58
2022-11-12T09:45:39.334Z,7.62
2022-11-12T09:46:39.374Z,7.63
2022-11-12T09:47:39.312Z,7.62
2022-11-12T09:48:39.302Z,7.62
2022-11-12T09:49:40.038Z,7.62
2022-11-12T09:50:39.289Z,7.62
2022-11-12T09:51:39.284Z,7.60
2022-11-12T09:52:39.290Z,7.59
2022-11-12T09:53:44.138Z,7.59
2022-11-12T09:54:39.245Z,7.60
2022-11-12T09:55:39.223Z,7.63
2022-11-12T09:56:39.270Z,7.66
2022-11-12T09:57:39.225Z,7.67
2022-11-12T09:58:39.183Z,7.74
2022-11-12T09:59:39.185Z,7.79
2022-11-12T10:00:44.757Z,7.82
2022-11-12T10:01:40.175Z,7.82
2022-11-12T10:02:39.133Z,7.84
2022-11-12T10:03:39.140Z,7.87
2022-11-12T10:04:39.130Z,7.87
2022-11-12T10:05:39.280Z,7.93
2022-11-12T10:06:39.320Z,7.96
2022-11-12T10:07:39.098Z,7.97
2022-11-12T10:08:39.080Z,7.97
2022-11-12T10:09:39.064Z,7.97
2022-11-12T10:10:39.056Z,7.99
2022-11-12T10:11:39.065Z,7.99
2022-11-12T10:12:39.149Z,8.03
2022-11-12T10:13:39.026Z,8.11
2022-11-12T10:14:39.019Z,8.17
2022-11-12T10:15:39.840Z,8.18
2022-11-12T10:16:39.014Z,8.22
2022-11-12T10:17:40.402Z,8.28
2022-11-12T10:18:38.970Z,8.26
2022-11-12T10:19:38.951Z,8.29
2022-11-12T10:20:39.052Z,8.29
2022-11-12T10:21:38.951Z,8.30
2022-11-12T10:22:38.925Z,8.45
2022-11-12T10:23:38.906Z,8.53
2022-11-12T10:24:38.902Z,8.58
2022-11-12T10:25:39.235Z,8.63
2022-11-12T10:26:38.982Z,8.88
2022-11-12T10:27:39.687Z,8.99
2022-11-12T10:28:39.442Z,9.04
2022-11-12T10:29:38.918Z,9.04
2022-11-12T10:30:38.884Z,9.01
2022-11-12T10:31:38.894Z,8.99
2022-11-12T10:32:38.843Z,8.96
2022-11-12T10:33:38.811Z,8.94
2022-11-12T10:34:38.797Z,8.94
2022-11-12T10:35:38.884Z,8.96
2022-11-12T10:36:39.062Z,8.99
2022-11-12T10:37:39.526Z,9.04
2022-11-12T10:38:38.870Z,9.05
2022-11-12T10:39:38.790Z,9.09
2022-11-12T10:40:38.726Z,9.06
2022-11-12T10:41:38.746Z,9.04
2022-11-12T10:42:38.702Z,9.04
2022-11-12T10:43:38.686Z,9.05
2022-11-12T10:44:38.680Z,9.12
2022-11-12T10:45:38.662Z,9.15
2022-11-12T10:46:38.683Z,9.16
2022-11-12T10:47:39.417Z,9.15
2022-11-12T10:48:38.627Z,9.15
2022-11-12T10:49:38.658Z,9.18
2022-11-12T10:50:38.606Z,9.20
2022-11-12T10:51:38.617Z,9.21
2022-11-12T10:52:38.598Z,9.23
2022-11-12T10:53:38.584Z,9.23
2022-11-12T10:54:38.600Z,9.20
2022-11-12T10:55:38.546Z,9.16
2022-11-12T10:56:38.751Z,9.16
2022-11-12T10:57:38.534Z,9.21
2022-11-12T10:58:38.521Z,9.23
2022-11-12T10:59:38.526Z,9.21
2022-11-12T11:00:38.903Z,9.25
2022-11-12T11:01:43.027Z,9.27
2022-11-12T11:02:40.774Z,9.27
2022-11-12T11:03:38.470Z,9.25
2022-11-12T11:04:38.771Z,9.25
2022-11-12T11:05:38.445Z,9.25
2022-11-12T11:06:38.510Z,9.20
2022-11-12T11:07:38.407Z,9.20
2022-11-12T11:08:38.918Z,9.21
2022-11-12T11:09:38.413Z,9.20
2022-11-12T11:10:38.400Z,9.25
2022-11-12T11:11:38.390Z,9.31
2022-11-12T11:12:38.367Z,9.32
2022-11-12T11:13:38.350Z,9.34
2022-11-12T11:14:38.388Z,9.39
2022-11-12T11:15:38.334Z,9.43
2022-11-12T11:16:38.388Z,9.56
2022-11-12T11:17:38.320Z,9.64
2022-11-12T11:18:38.309Z,9.67
2022-11-12T11:19:38.285Z,9.67
2022-11-12T11:20:38.288Z,9.70
2022-11-12T11:21:42.063Z,9.70
2022-11-12T11:22:38.275Z,9.70
2022-11-12T11:23:38.252Z,9.70
2022-11-12T11:24:38.238Z,9.71
2022-11-12T11:25:38.215Z,9.73
2022-11-12T11:26:38.231Z,9.71
2022-11-12T11:27:38.224Z,9.75
2022-11-12T11:28:38.194Z,9.76
2022-11-12T11:29:38.180Z,9.78
2022-11-12T11:30:38.171Z,9.79
2022-11-12T11:31:38.177Z,9.82
2022-11-12T11:32:38.154Z,9.81
2022-11-12T11:33:38.247Z,9.82
2022-11-12T11:34:38.133Z,9.88
2022-11-12T11:35:38.115Z,9.94
2022-11-12T11:36:38.134Z,9.96
2022-11-12T11:37:38.146Z,9.97
2022-11-12T11:38:38.094Z,10.00
2022-11-12T11:39:38.075Z,10.07
2022-11-12T11:40:38.140Z,10.15
2022-11-12T11:41:38.156Z,10.19
2022-11-12T11:42:37.042Z,10.22
2022-11-12T11:43:38.108Z,10.28
2022-11-12T11:44:38.016Z,10.33
2022-11-12T11:45:38.084Z,10.36
2022-11-12T11:46:38.010Z,10.36
2022-11-12T11:47:59.358Z,10.34
2022-11-12T11:48:38.016Z,10.39
2022-11-12T11:49:37.956Z,10.42
2022-11-12T11:50:37.948Z,10.44
2022-11-12T11:51:37.972Z,10.47
2022-11-12T11:52:37.927Z,10.53
2022-11-12T11:53:37.916Z,10.56
2022-11-12T11:54:37.915Z,10.59
2022-11-12T11:55:37.897Z,10.60
2022-11-12T11:56:37.897Z,10.65
2022-11-12T11:57:37.881Z,10.71
2022-11-12T11:58:37.859Z,10.76
2022-11-12T11:59:37.844Z,10.78
2022-11-12T12:00:38.081Z,10.83
2022-11-12T12:01:37.838Z,10.86
2022-11-12T12:02:37.849Z,10.88
2022-11-12T12:03:37.816Z,10.89
2022-11-12T12:04:37.791Z,10.91
2022-11-12T12:05:37.907Z,10.92
2022-11-12T12:06:37.859Z,10.92
2022-11-12T12:07:37.755Z,10.92
2022-11-12T12:08:37.762Z,10.92
2022-11-12T12:09:37.734Z,10.91
2022-11-12T12:11:01.684Z,10.91
2022-11-12T12:11:37.737Z,10.91
2022-11-12T12:12:37.699Z,10.91
2022-11-12T12:13:37.717Z,10.89
2022-11-12T12:14:37.685Z,10.94
2022-11-12T12:15:37.668Z,10.94
2022-11-12T12:16:37.681Z,10.94
2022-11-12T12:17:37.666Z,10.94
2022-11-12T12:18:37.655Z,10.95
2022-11-12T12:19:37.622Z,10.96
2022-11-12T12:20:37.624Z,10.96
2022-11-12T12:21:37.643Z,10.96
2022-11-12T12:22:37.594Z,10.96
2022-11-12T12:23:37.577Z,10.99
2022-11-12T12:24:37.694Z,10.99
2022-11-12T12:25:37.626Z,11.02
2022-11-12T12:26:37.551Z,11.02
2022-11-12T12:27:37.563Z,11.06
2022-11-12T12:28:37.641Z,11.07
2022-11-12T12:29:37.504Z,11.10
2022-11-12T12:30:37.546Z,11.13
2022-11-12T12:31:37.493Z,11.16
2022-11-12T12:32:37.477Z,11.19
2022-11-12T12:33:37.461Z,11.20
2022-11-12T12:34:37.482Z,11.21
2022-11-12T12:35:37.441Z,11.25
2022-11-12T12:36:37.467Z,11.27
2022-11-12T12:37:37.428Z,11.28
2022-11-12T12:38:37.412Z,11.32
2022-11-12T12:39:37.399Z,11.34
2022-11-12T12:40:37.385Z,11.38
2022-11-12T12:41:37.390Z,11.41
2022-11-12T12:42:37.377Z,11.47
2022-11-12T12:43:37.356Z,11.50
2022-11-12T12:44:37.344Z,11.52
2022-11-12T12:45:37.376Z,11.52
2022-11-12T12:46:37.336Z,11.52
2022-11-12T12:47:37.307Z,11.53
2022-11-12T12:48:37.316Z,11.53
2022-11-12T12:49:37.285Z,11.53
2022-11-12T12:50:37.270Z,11.52
2022-11-12T12:51:37.277Z,11.52
2022-11-12T12:52:37.258Z,11.52
2022-11-12T12:53:37.241Z,11.53
2022-11-12T12:54:37.249Z,11.57
2022-11-12T12:55:37.216Z,11.56
2022-11-12T12:56:37.226Z,11.56
2022-11-12T12:57:37.230Z,11.57
2022-11-12T12:58:37.195Z,11.56
2022-11-12T12:59:37.180Z,11.57
2022-11-12T13:00:37.229Z,11.59
2022-11-12T13:01:37.187Z,11.61
2022-11-12T13:02:37.140Z,11.64
2022-11-12T13:03:37.128Z,11.65
2022-11-12T13:04:37.126Z,11.67
2022-11-12T13:05:37.114Z,11.70
2022-11-12T13:06:37.197Z,11.71
2022-11-12T13:07:37.094Z,11.75
2022-11-12T13:08:37.078Z,11.75
2022-11-12T13:09:37.064Z,11.78
2022-11-12T13:10:37.083Z,11.78
2022-11-12T13:11:37.061Z,11.80
2022-11-12T13:12:37.038Z,11.80
2022-11-12T13:13:37.018Z,11.83
2022-11-12T13:14:37.052Z,11.80
2022-11-12T13:15:37.000Z,11.83